sensor_id;sensor_type;location;lat;lon;timestamp;P1;durP1;ratioP1;P2;durP2;ratioP2
51913;SDS011;37940;53.002;6.930;2023-03-01T00:01:59;34.60;;;16.52;;
51913;SDS011;37940;53.002;6.930;2023-03-01T00:04:25;29.75;;;16.88;;
51913;SDS011;37940;53.002;6.930;2023-03-01T00:06:52;31.98;;;17.40;;
51913;SDS011;37940;53.002;6.930;2023-03-01T00:09:18;30.23;;;16.55;;
51913;SDS011;37940;53.002;6.930;2023-03-01T00:11:43;32.47;;;17.80;;
51913;SDS011;37940;53.002;6.930;2023-03-01T00:14:09;33.50;;;17.02;;
51913;SDS011;37940;53.002;6.930;2023-03-01T00:16:39;32.50;;;17.13;;
51913;SDS011;37940;53.002;6.930;2023-03-01T00:19:07;30.90;;;17.10;;
51913;SDS011;37940;53.002;6.930;2023-03-01T00:21:36;35.05;;;16.45;;
51913;SDS011;37940;53.002;6.930;2023-03-01T00:24:02;33.60;;;16.02;;
51913;SDS011;37940;53.002;6.930;2023-03-01T00:26:29;31.70;;;16.40;;
51913;SDS011;37940;53.002;6.930;2023-03-01T00:28:56;31.27;;;15.43;;
51913;SDS011;37940;53.002;6.930;2023-03-01T00:31:23;32.03;;;15.98;;
51913;SDS011;37940;53.002;6.930;2023-03-01T00:33:54;27.10;;;14.18;;
51913;SDS011;37940;53.002;6.930;2023-03-01T00:36:24;27.20;;;14.98;;
51913;SDS011;37940;53.002;6.930;2023-03-01T00:38:52;27.48;;;14.63;;
51913;SDS011;37940;53.002;6.930;2023-03-01T00:41:18;23.63;;;13.00;;
51913;SDS011;37940;53.002;6.930;2023-03-01T00:43:45;29.85;;;14.05;;
51913;SDS011;37940;53.002;6.930;2023-03-01T00:46:15;25.48;;;13.23;;
51913;SDS011;37940;53.002;6.930;2023-03-01T00:48:43;24.05;;;13.55;;
51913;SDS011;37940;53.002;6.930;2023-03-01T00:51:14;23.42;;;12.73;;
51913;SDS011;37940;53.002;6.930;2023-03-01T00:53:41;23.48;;;12.77;;
51913;SDS011;37940;53.002;6.930;2023-03-01T00:56:08;25.08;;;13.57;;
51913;SDS011;37940;53.002;6.930;2023-03-01T00:58:35;27.17;;;14.55;;
51913;SDS011;37940;53.002;6.930;2023-03-01T01:01:07;23.60;;;13.70;;
51913;SDS011;37940;53.002;6.930;2023-03-01T01:06:14;22.73;;;13.50;;
51913;SDS011;37940;53.002;6.930;2023-03-01T01:08:44;24.65;;;12.95;;
51913;SDS011;37940;53.002;6.930;2023-03-01T01:11:11;23.10;;;13.10;;
51913;SDS011;37940;53.002;6.930;2023-03-01T01:13:38;25.13;;;13.45;;
51913;SDS011;37940;53.002;6.930;2023-03-01T01:16:05;22.10;;;12.57;;
51913;SDS011;37940;53.002;6.930;2023-03-01T01:18:31;24.05;;;12.90;;
51913;SDS011;37940;53.002;6.930;2023-03-01T01:20:57;24.17;;;13.05;;
51913;SDS011;37940;53.002;6.930;2023-03-01T01:23:23;23.83;;;13.02;;
51913;SDS011;37940;53.002;6.930;2023-03-01T01:25:48;25.38;;;13.30;;
51913;SDS011;37940;53.002;6.930;2023-03-01T01:28:14;26.50;;;13.38;;
51913;SDS011;37940;53.002;6.930;2023-03-01T01:30:40;25.05;;;13.70;;
51913;SDS011;37940;53.002;6.930;2023-03-01T01:33:07;20.45;;;12.30;;
51913;SDS011;37940;53.002;6.930;2023-03-01T01:35:33;23.67;;;12.82;;
51913;SDS011;37940;53.002;6.930;2023-03-01T01:37:59;23.90;;;13.10;;
51913;SDS011;37940;53.002;6.930;2023-03-01T01:40:25;25.50;;;13.48;;
51913;SDS011;37940;53.002;6.930;2023-03-01T01:42:50;22.15;;;12.65;;
51913;SDS011;37940;53.002;6.930;2023-03-01T01:45:34;22.80;;;12.90;;
51913;SDS011;37940;53.002;6.930;2023-03-01T01:48:03;22.05;;;12.27;;
51913;SDS011;37940;53.002;6.930;2023-03-01T01:50:31;23.92;;;13.50;;
51913;SDS011;37940;53.002;6.930;2023-03-01T01:53:04;20.77;;;12.60;;
51913;SDS011;37940;53.002;6.930;2023-03-01T01:55:33;21.80;;;12.32;;
51913;SDS011;37940;53.002;6.930;2023-03-01T01:58:05;25.45;;;13.23;;
51913;SDS011;37940;53.002;6.930;2023-03-01T02:00:34;20.73;;;12.63;;
51913;SDS011;37940;53.002;6.930;2023-03-01T02:03:04;20.27;;;12.00;;
51913;SDS011;37940;53.002;6.930;2023-03-01T02:05:44;22.35;;;13.48;;
51913;SDS011;37940;53.002;6.930;2023-03-01T02:08:25;21.85;;;11.93;;
51913;SDS011;37940;53.002;6.930;2023-03-01T02:10:55;19.60;;;11.60;;
51913;SDS011;37940;53.002;6.930;2023-03-01T02:13:22;24.55;;;13.80;;
51913;SDS011;37940;53.002;6.930;2023-03-01T02:15:48;24.88;;;14.00;;
51913;SDS011;37940;53.002;6.930;2023-03-01T02:18:16;27.23;;;14.38;;
51913;SDS011;37940;53.002;6.930;2023-03-01T02:23:15;25.92;;;14.77;;
51913;SDS011;37940;53.002;6.930;2023-03-01T02:25:47;27.65;;;14.00;;
51913;SDS011;37940;53.002;6.930;2023-03-01T02:28:26;25.02;;;14.13;;
51913;SDS011;37940;53.002;6.930;2023-03-01T02:30:54;26.23;;;15.07;;
51913;SDS011;37940;53.002;6.930;2023-03-01T02:33:39;24.70;;;13.93;;
51913;SDS011;37940;53.002;6.930;2023-03-01T02:36:12;25.35;;;14.00;;
51913;SDS011;37940;53.002;6.930;2023-03-01T02:38:49;26.40;;;14.98;;
51913;SDS011;37940;53.002;6.930;2023-03-01T02:41:19;26.58;;;15.13;;
51913;SDS011;37940;53.002;6.930;2023-03-01T02:43:45;28.95;;;15.45;;
51913;SDS011;37940;53.002;6.930;2023-03-01T02:46:22;26.45;;;14.93;;
51913;SDS011;37940;53.002;6.930;2023-03-01T02:48:50;26.75;;;15.18;;
51913;SDS011;37940;53.002;6.930;2023-03-01T02:54:15;30.30;;;15.70;;
51913;SDS011;37940;53.002;6.930;2023-03-01T02:56:46;25.48;;;14.30;;
51913;SDS011;37940;53.002;6.930;2023-03-01T02:59:14;27.08;;;14.93;;
51913;SDS011;37940;53.002;6.930;2023-03-01T03:01:43;26.65;;;14.00;;
51913;SDS011;37940;53.002;6.930;2023-03-01T03:04:10;24.73;;;14.15;;
51913;SDS011;37940;53.002;6.930;2023-03-01T03:06:42;26.33;;;14.50;;
51913;SDS011;37940;53.002;6.930;2023-03-01T03:09:13;25.02;;;14.38;;
51913;SDS011;37940;53.002;6.930;2023-03-01T03:11:40;23.92;;;14.02;;
51913;SDS011;37940;53.002;6.930;2023-03-01T03:14:11;28.30;;;13.77;;
51913;SDS011;37940;53.002;6.930;2023-03-01T03:16:42;26.58;;;14.45;;
51913;SDS011;37940;53.002;6.930;2023-03-01T03:19:10;25.88;;;14.32;;
51913;SDS011;37940;53.002;6.930;2023-03-01T03:21:36;26.20;;;14.52;;
51913;SDS011;37940;53.002;6.930;2023-03-01T03:24:02;25.50;;;13.43;;
51913;SDS011;37940;53.002;6.930;2023-03-01T03:26:29;24.13;;;15.00;;
51913;SDS011;37940;53.002;6.930;2023-03-01T03:28:55;27.08;;;14.70;;
51913;SDS011;37940;53.002;6.930;2023-03-01T03:31:21;23.13;;;13.95;;
51913;SDS011;37940;53.002;6.930;2023-03-01T03:33:47;30.88;;;15.73;;
51913;SDS011;37940;53.002;6.930;2023-03-01T03:36:19;25.92;;;14.43;;
51913;SDS011;37940;53.002;6.930;2023-03-01T03:38:47;29.00;;;15.77;;
51913;SDS011;37940;53.002;6.930;2023-03-01T03:41:14;28.98;;;15.15;;
51913;SDS011;37940;53.002;6.930;2023-03-01T03:43:41;27.98;;;14.93;;
51913;SDS011;37940;53.002;6.930;2023-03-01T03:46:08;28.17;;;13.82;;
51913;SDS011;37940;53.002;6.930;2023-03-01T03:48:42;25.70;;;13.25;;
51913;SDS011;37940;53.002;6.930;2023-03-01T03:51:10;23.92;;;14.75;;
51913;SDS011;37940;53.002;6.930;2023-03-01T03:53:37;29.92;;;14.18;;
51913;SDS011;37940;53.002;6.930;2023-03-01T03:56:02;24.08;;;14.18;;
51913;SDS011;37940;53.002;6.930;2023-03-01T03:58:28;26.20;;;14.95;;
51913;SDS011;37940;53.002;6.930;2023-03-01T04:00:55;26.23;;;14.30;;
51913;SDS011;37940;53.002;6.930;2023-03-01T04:03:23;24.25;;;14.30;;
51913;SDS011;37940;53.002;6.930;2023-03-01T04:05:50;25.42;;;14.55;;
51913;SDS011;37940;53.002;6.930;2023-03-01T04:08:17;23.63;;;14.40;;
51913;SDS011;37940;53.002;6.930;2023-03-01T04:10:45;25.60;;;14.45;;
51913;SDS011;37940;53.002;6.930;2023-03-01T04:13:14;25.92;;;14.48;;
51913;SDS011;37940;53.002;6.930;2023-03-01T04:15:42;28.75;;;14.75;;
51913;SDS011;37940;53.002;6.930;2023-03-01T04:18:08;24.20;;;13.18;;
51913;SDS011;37940;53.002;6.930;2023-03-01T04:20:39;25.15;;;13.75;;
51913;SDS011;37940;53.002;6.930;2023-03-01T04:23:10;25.00;;;13.90;;
51913;SDS011;37940;53.002;6.930;2023-03-01T04:28:30;26.42;;;13.85;;
51913;SDS011;37940;53.002;6.930;2023-03-01T04:31:05;25.38;;;13.90;;
51913;SDS011;37940;53.002;6.930;2023-03-01T04:33:39;26.52;;;14.52;;
51913;SDS011;37940;53.002;6.930;2023-03-01T04:36:10;23.35;;;13.25;;
51913;SDS011;37940;53.002;6.930;2023-03-01T04:38:37;25.88;;;13.35;;
51913;SDS011;37940;53.002;6.930;2023-03-01T04:41:04;23.88;;;12.88;;
51913;SDS011;37940;53.002;6.930;2023-03-01T04:43:31;24.88;;;14.07;;
51913;SDS011;37940;53.002;6.930;2023-03-01T04:46:09;28.13;;;14.10;;
51913;SDS011;37940;53.002;6.930;2023-03-01T04:48:40;23.27;;;13.20;;
51913;SDS011;37940;53.002;6.930;2023-03-01T04:51:07;24.17;;;13.00;;
51913;SDS011;37940;53.002;6.930;2023-03-01T04:53:33;24.30;;;13.40;;
51913;SDS011;37940;53.002;6.930;2023-03-01T04:56:01;24.20;;;13.63;;
51913;SDS011;37940;53.002;6.930;2023-03-01T04:58:27;28.42;;;14.88;;
51913;SDS011;37940;53.002;6.930;2023-03-01T05:00:54;26.77;;;12.88;;
51913;SDS011;37940;53.002;6.930;2023-03-01T05:03:20;25.13;;;14.23;;
51913;SDS011;37940;53.002;6.930;2023-03-01T05:05:50;26.48;;;14.27;;
51913;SDS011;37940;53.002;6.930;2023-03-01T05:08:16;27.60;;;14.27;;
51913;SDS011;37940;53.002;6.930;2023-03-01T05:10:44;23.35;;;13.35;;
51913;SDS011;37940;53.002;6.930;2023-03-01T05:13:11;26.65;;;13.70;;
51913;SDS011;37940;53.002;6.930;2023-03-01T05:15:46;24.25;;;13.13;;
51913;SDS011;37940;53.002;6.930;2023-03-01T05:18:23;23.17;;;12.80;;
51913;SDS011;37940;53.002;6.930;2023-03-01T05:20:54;23.60;;;12.93;;
51913;SDS011;37940;53.002;6.930;2023-03-01T05:23:24;25.52;;;13.57;;
51913;SDS011;37940;53.002;6.930;2023-03-01T05:25:50;24.17;;;14.40;;
51913;SDS011;37940;53.002;6.930;2023-03-01T05:28:17;28.20;;;15.07;;
51913;SDS011;37940;53.002;6.930;2023-03-01T05:30:45;30.00;;;14.57;;
51913;SDS011;37940;53.002;6.930;2023-03-01T05:33:11;27.45;;;13.45;;
51913;SDS011;37940;53.002;6.930;2023-03-01T05:35:40;30.98;;;14.70;;
51913;SDS011;37940;53.002;6.930;2023-03-01T05:38:07;29.77;;;14.88;;
51913;SDS011;37940;53.002;6.930;2023-03-01T05:40:34;28.92;;;15.07;;
51913;SDS011;37940;53.002;6.930;2023-03-01T05:43:00;29.30;;;14.68;;
51913;SDS011;37940;53.002;6.930;2023-03-01T05:45:27;26.63;;;14.57;;
51913;SDS011;37940;53.002;6.930;2023-03-01T05:47:53;29.45;;;14.23;;
51913;SDS011;37940;53.002;6.930;2023-03-01T05:50:26;35.97;;;15.63;;
51913;SDS011;37940;53.002;6.930;2023-03-01T05:52:58;34.30;;;15.68;;
51913;SDS011;37940;53.002;6.930;2023-03-01T05:55:26;29.70;;;14.60;;
51913;SDS011;37940;53.002;6.930;2023-03-01T05:57:52;30.23;;;16.02;;
51913;SDS011;37940;53.002;6.930;2023-03-01T06:00:19;33.08;;;14.75;;
51913;SDS011;37940;53.002;6.930;2023-03-01T06:02:47;27.25;;;14.40;;
51913;SDS011;37940;53.002;6.930;2023-03-01T06:05:14;29.10;;;15.75;;
51913;SDS011;37940;53.002;6.930;2023-03-01T06:07:40;30.38;;;15.30;;
51913;SDS011;37940;53.002;6.930;2023-03-01T06:10:07;25.65;;;14.27;;
51913;SDS011;37940;53.002;6.930;2023-03-01T06:12:35;29.58;;;15.40;;
51913;SDS011;37940;53.002;6.930;2023-03-01T06:15:02;29.42;;;15.25;;
51913;SDS011;37940;53.002;6.930;2023-03-01T06:17:30;33.15;;;16.58;;
51913;SDS011;37940;53.002;6.930;2023-03-01T06:19:58;32.80;;;15.85;;
51913;SDS011;37940;53.002;6.930;2023-03-01T06:22:23;31.95;;;16.55;;
51913;SDS011;37940;53.002;6.930;2023-03-01T06:24:49;32.63;;;16.10;;
51913;SDS011;37940;53.002;6.930;2023-03-01T06:27:15;32.35;;;15.88;;
51913;SDS011;37940;53.002;6.930;2023-03-01T06:29:41;30.98;;;15.63;;
51913;SDS011;37940;53.002;6.930;2023-03-01T06:32:07;28.33;;;16.02;;
51913;SDS011;37940;53.002;6.930;2023-03-01T06:34:33;28.08;;;15.40;;
51913;SDS011;37940;53.002;6.930;2023-03-01T06:36:58;34.53;;;17.20;;
51913;SDS011;37940;53.002;6.930;2023-03-01T06:39:24;29.95;;;16.67;;
51913;SDS011;37940;53.002;6.930;2023-03-01T06:41:52;29.65;;;15.82;;
51913;SDS011;37940;53.002;6.930;2023-03-01T06:44:18;29.35;;;16.42;;
51913;SDS011;37940;53.002;6.930;2023-03-01T06:46:46;32.00;;;16.45;;
51913;SDS011;37940;53.002;6.930;2023-03-01T06:49:12;30.77;;;17.23;;
51913;SDS011;37940;53.002;6.930;2023-03-01T06:51:38;28.70;;;16.67;;
51913;SDS011;37940;53.002;6.930;2023-03-01T06:54:04;29.50;;;16.63;;
51913;SDS011;37940;53.002;6.930;2023-03-01T06:56:30;32.70;;;17.08;;
51913;SDS011;37940;53.002;6.930;2023-03-01T06:58:56;30.95;;;15.98;;
51913;SDS011;37940;53.002;6.930;2023-03-01T07:01:22;29.98;;;16.75;;
51913;SDS011;37940;53.002;6.930;2023-03-01T07:03:48;32.70;;;18.17;;
51913;SDS011;37940;53.002;6.930;2023-03-01T07:06:14;29.00;;;16.35;;
51913;SDS011;37940;53.002;6.930;2023-03-01T07:08:40;30.05;;;16.30;;
51913;SDS011;37940;53.002;6.930;2023-03-01T07:11:05;36.05;;;18.05;;
51913;SDS011;37940;53.002;6.930;2023-03-01T07:13:32;33.58;;;17.85;;
51913;SDS011;37940;53.002;6.930;2023-03-01T07:15:58;32.88;;;17.90;;
51913;SDS011;37940;53.002;6.930;2023-03-01T07:18:24;30.85;;;17.23;;
51913;SDS011;37940;53.002;6.930;2023-03-01T07:20:49;40.15;;;18.50;;
51913;SDS011;37940;53.002;6.930;2023-03-01T07:23:15;33.30;;;17.98;;
51913;SDS011;37940;53.002;6.930;2023-03-01T07:25:41;31.05;;;17.92;;
51913;SDS011;37940;53.002;6.930;2023-03-01T07:28:07;35.30;;;20.75;;
51913;SDS011;37940;53.002;6.930;2023-03-01T07:30:33;35.88;;;20.40;;
51913;SDS011;37940;53.002;6.930;2023-03-01T07:32:58;47.13;;;21.60;;
51913;SDS011;37940;53.002;6.930;2023-03-01T07:35:25;41.28;;;22.13;;
51913;SDS011;37940;53.002;6.930;2023-03-01T07:37:51;46.13;;;22.70;;
51913;SDS011;37940;53.002;6.930;2023-03-01T07:40:18;45.58;;;22.08;;
51913;SDS011;37940;53.002;6.930;2023-03-01T07:42:44;48.85;;;23.90;;
51913;SDS011;37940;53.002;6.930;2023-03-01T07:45:10;59.63;;;30.50;;
51913;SDS011;37940;53.002;6.930;2023-03-01T07:47:38;73.80;;;32.60;;
51913;SDS011;37940;53.002;6.930;2023-03-01T07:50:04;73.57;;;33.83;;
51913;SDS011;37940;53.002;6.930;2023-03-01T07:52:30;75.43;;;34.75;;
51913;SDS011;37940;53.002;6.930;2023-03-01T07:54:56;69.80;;;33.95;;
51913;SDS011;37940;53.002;6.930;2023-03-01T07:57:22;80.07;;;35.55;;
51913;SDS011;37940;53.002;6.930;2023-03-01T07:59:48;80.55;;;36.22;;
51913;SDS011;37940;53.002;6.930;2023-03-01T08:02:14;73.93;;;33.08;;
51913;SDS011;37940;53.002;6.930;2023-03-01T08:04:41;76.45;;;36.33;;
51913;SDS011;37940;53.002;6.930;2023-03-01T08:07:07;74.95;;;34.78;;
51913;SDS011;37940;53.002;6.930;2023-03-01T08:09:36;82.53;;;37.42;;
51913;SDS011;37940;53.002;6.930;2023-03-01T08:12:02;81.55;;;36.08;;
51913;SDS011;37940;53.002;6.930;2023-03-01T08:14:30;73.38;;;36.08;;
51913;SDS011;37940;53.002;6.930;2023-03-01T08:16:56;77.30;;;36.20;;
51913;SDS011;37940;53.002;6.930;2023-03-01T08:19:22;73.72;;;36.45;;
51913;SDS011;37940;53.002;6.930;2023-03-01T08:21:48;82.07;;;37.33;;
51913;SDS011;37940;53.002;6.930;2023-03-01T08:24:14;83.05;;;38.63;;
51913;SDS011;37940;53.002;6.930;2023-03-01T08:26:40;80.40;;;37.80;;
51913;SDS011;37940;53.002;6.930;2023-03-01T08:29:06;87.28;;;39.10;;
51913;SDS011;37940;53.002;6.930;2023-03-01T08:31:36;83.65;;;38.30;;
51913;SDS011;37940;53.002;6.930;2023-03-01T08:34:06;80.77;;;38.10;;
51913;SDS011;37940;53.002;6.930;2023-03-01T08:36:38;76.13;;;38.05;;
51913;SDS011;37940;53.002;6.930;2023-03-01T08:39:06;79.00;;;31.95;;
51913;SDS011;37940;53.002;6.930;2023-03-01T08:41:33;97.20;;;36.95;;
51913;SDS011;37940;53.002;6.930;2023-03-01T08:43:59;189.43;;;33.55;;
51913;SDS011;37940;53.002;6.930;2023-03-01T08:46:26;290.52;;;36.83;;
51913;SDS011;37940;53.002;6.930;2023-03-01T08:48:56;279.38;;;36.67;;
51913;SDS011;37940;53.002;6.930;2023-03-01T08:51:22;294.13;;;33.47;;
51913;SDS011;37940;53.002;6.930;2023-03-01T08:53:49;246.25;;;32.97;;
51913;SDS011;37940;53.002;6.930;2023-03-01T08:56:15;199.45;;;28.52;;
51913;SDS011;37940;53.002;6.930;2023-03-01T08:58:47;278.30;;;30.40;;
51913;SDS011;37940;53.002;6.930;2023-03-01T09:01:14;335.15;;;30.90;;
51913;SDS011;37940;53.002;6.930;2023-03-01T09:03:42;257.17;;;25.92;;
51913;SDS011;37940;53.002;6.930;2023-03-01T09:06:09;238.02;;;25.75;;
51913;SDS011;37940;53.002;6.930;2023-03-01T09:08:39;302.00;;;32.15;;
51913;SDS011;37940;53.002;6.930;2023-03-01T09:11:07;248.20;;;27.67;;
51913;SDS011;37940;53.002;6.930;2023-03-01T09:13:36;246.75;;;29.83;;
51913;SDS011;37940;53.002;6.930;2023-03-01T09:16:03;270.63;;;29.85;;
51913;SDS011;37940;53.002;6.930;2023-03-01T09:18:30;118.75;;;26.67;;
51913;SDS011;37940;53.002;6.930;2023-03-01T09:23:36;211.35;;;33.30;;
51913;SDS011;37940;53.002;6.930;2023-03-01T09:26:07;185.73;;;29.60;;
51913;SDS011;37940;53.002;6.930;2023-03-01T09:28:38;175.00;;;28.50;;
51913;SDS011;37940;53.002;6.930;2023-03-01T09:31:06;247.38;;;31.83;;
51913;SDS011;37940;53.002;6.930;2023-03-01T09:33:32;200.10;;;30.02;;
51913;SDS011;37940;53.002;6.930;2023-03-01T09:35:59;206.43;;;30.52;;
51913;SDS011;37940;53.002;6.930;2023-03-01T09:38:26;96.78;;;30.65;;
51913;SDS011;37940;53.002;6.930;2023-03-01T09:40:52;111.68;;;41.10;;
51913;SDS011;37940;53.002;6.930;2023-03-01T09:43:21;103.65;;;37.15;;
51913;SDS011;37940;53.002;6.930;2023-03-01T09:46:18;80.22;;;41.75;;
51913;SDS011;37940;53.002;6.930;2023-03-01T09:48:57;78.60;;;42.47;;
51913;SDS011;37940;53.002;6.930;2023-03-01T09:51:31;56.05;;;33.20;;
51913;SDS011;37940;53.002;6.930;2023-03-01T09:54:00;61.35;;;33.08;;
51913;SDS011;37940;53.002;6.930;2023-03-01T09:56:41;41.85;;;24.67;;
51913;SDS011;37940;53.002;6.930;2023-03-01T09:59:29;42.40;;;28.00;;
51913;SDS011;37940;53.002;6.930;2023-03-01T10:04:46;37.78;;;23.92;;
51913;SDS011;37940;53.002;6.930;2023-03-01T10:09:45;43.28;;;27.58;;
51913;SDS011;37940;53.002;6.930;2023-03-01T10:12:14;40.72;;;24.25;;
51913;SDS011;37940;53.002;6.930;2023-03-01T10:17:48;48.63;;;31.48;;
51913;SDS011;37940;53.002;6.930;2023-03-01T10:20:18;45.42;;;27.30;;
51913;SDS011;37940;53.002;6.930;2023-03-01T10:22:44;46.03;;;28.60;;
51913;SDS011;37940;53.002;6.930;2023-03-01T10:25:15;46.05;;;29.15;;
51913;SDS011;37940;53.002;6.930;2023-03-01T10:28:10;46.45;;;28.67;;
51913;SDS011;37940;53.002;6.930;2023-03-01T10:30:43;46.22;;;29.10;;
51913;SDS011;37940;53.002;6.930;2023-03-01T10:36:09;42.55;;;25.48;;
51913;SDS011;37940;53.002;6.930;2023-03-01T10:38:48;43.97;;;28.15;;
51913;SDS011;37940;53.002;6.930;2023-03-01T10:41:14;43.30;;;27.42;;
51913;SDS011;37940;53.002;6.930;2023-03-01T10:46:43;36.78;;;24.45;;
51913;SDS011;37940;53.002;6.930;2023-03-01T10:51:46;34.50;;;23.35;;
51913;SDS011;37940;53.002;6.930;2023-03-01T10:54:19;32.47;;;19.45;;
51913;SDS011;37940;53.002;6.930;2023-03-01T10:56:56;30.95;;;19.83;;
51913;SDS011;37940;53.002;6.930;2023-03-01T11:07:26;25.23;;;15.80;;
51913;SDS011;37940;53.002;6.930;2023-03-01T11:09:52;27.55;;;17.60;;
51913;SDS011;37940;53.002;6.930;2023-03-01T11:12:18;22.13;;;15.63;;
51913;SDS011;37940;53.002;6.930;2023-03-01T11:14:46;21.35;;;14.43;;
51913;SDS011;37940;53.002;6.930;2023-03-01T11:22:38;17.33;;;12.00;;
51913;SDS011;37940;53.002;6.930;2023-03-01T11:25:17;24.05;;;14.10;;
51913;SDS011;37940;53.002;6.930;2023-03-01T11:27:48;23.05;;;15.07;;
51913;SDS011;37940;53.002;6.930;2023-03-01T11:30:22;21.92;;;14.60;;
51913;SDS011;37940;53.002;6.930;2023-03-01T11:35:29;20.92;;;14.45;;
51913;SDS011;37940;53.002;6.930;2023-03-01T11:50:57;23.40;;;15.70;;
51913;SDS011;37940;53.002;6.930;2023-03-01T11:56:35;21.20;;;13.88;;
51913;SDS011;37940;53.002;6.930;2023-03-01T12:07:52;23.52;;;15.95;;
51913;SDS011;37940;53.002;6.930;2023-03-01T12:44:28;21.08;;;14.10;;
51913;SDS011;37940;53.002;6.930;2023-03-01T12:47:07;19.17;;;12.98;;
51913;SDS011;37940;53.002;6.930;2023-03-01T12:49:47;18.65;;;12.27;;
51913;SDS011;37940;53.002;6.930;2023-03-01T12:52:22;15.82;;;11.85;;
51913;SDS011;37940;53.002;6.930;2023-03-01T13:01:00;15.68;;;9.70;;
51913;SDS011;37940;53.002;6.930;2023-03-01T13:06:27;17.23;;;11.30;;
51913;SDS011;37940;53.002;6.930;2023-03-01T13:09:04;17.23;;;11.63;;
51913;SDS011;37940;53.002;6.930;2023-03-01T13:11:54;15.60;;;10.65;;
51913;SDS011;37940;53.002;6.930;2023-03-01T13:16:45;16.02;;;11.45;;
51913;SDS011;37940;53.002;6.930;2023-03-01T13:21:51;17.33;;;10.20;;
51913;SDS011;37940;53.002;6.930;2023-03-01T13:24:25;15.05;;;10.90;;
51913;SDS011;37940;53.002;6.930;2023-03-01T13:29:52;14.25;;;10.32;;
51913;SDS011;37940;53.002;6.930;2023-03-01T13:32:21;15.57;;;9.90;;
51913;SDS011;37940;53.002;6.930;2023-03-01T13:34:47;13.65;;;9.82;;
51913;SDS011;37940;53.002;6.930;2023-03-01T13:37:34;13.30;;;9.85;;
51913;SDS011;37940;53.002;6.930;2023-03-01T13:42:52;15.23;;;10.27;;
51913;SDS011;37940;53.002;6.930;2023-03-01T13:45:52;16.17;;;10.65;;
51913;SDS011;37940;53.002;6.930;2023-03-01T13:48:29;15.77;;;11.45;;
51913;SDS011;37940;53.002;6.930;2023-03-01T13:51:00;14.15;;;10.18;;
51913;SDS011;37940;53.002;6.930;2023-03-01T13:53:33;14.25;;;10.82;;
51913;SDS011;37940;53.002;6.930;2023-03-01T13:56:09;12.57;;;9.63;;
51913;SDS011;37940;53.002;6.930;2023-03-01T13:58:53;15.07;;;10.40;;
51913;SDS011;37940;53.002;6.930;2023-03-01T14:01:24;15.15;;;10.60;;
51913;SDS011;37940;53.002;6.930;2023-03-01T14:03:55;14.45;;;10.85;;
51913;SDS011;37940;53.002;6.930;2023-03-01T14:06:25;16.63;;;10.32;;
51913;SDS011;37940;53.002;6.930;2023-03-01T14:09:05;15.98;;;11.10;;
51913;SDS011;37940;53.002;6.930;2023-03-01T14:16:48;15.23;;;10.02;;
51913;SDS011;37940;53.002;6.930;2023-03-01T14:19:38;15.02;;;11.23;;
51913;SDS011;37940;53.002;6.930;2023-03-01T14:22:25;14.70;;;11.13;;
51913;SDS011;37940;53.002;6.930;2023-03-01T14:27:20;15.55;;;11.52;;
51913;SDS011;37940;53.002;6.930;2023-03-01T14:29:58;15.13;;;11.60;;
51913;SDS011;37940;53.002;6.930;2023-03-01T14:32:27;15.98;;;11.45;;
51913;SDS011;37940;53.002;6.930;2023-03-01T14:34:55;15.57;;;11.23;;
51913;SDS011;37940;53.002;6.930;2023-03-01T14:39:50;17.83;;;11.85;;
51913;SDS011;37940;53.002;6.930;2023-03-01T14:42:17;16.05;;;11.93;;
51913;SDS011;37940;53.002;6.930;2023-03-01T14:44:46;15.82;;;11.82;;
51913;SDS011;37940;53.002;6.930;2023-03-01T14:47:23;16.42;;;11.60;;
51913;SDS011;37940;53.002;6.930;2023-03-01T14:50:07;18.25;;;12.43;;
51913;SDS011;37940;53.002;6.930;2023-03-01T14:52:45;16.30;;;11.52;;
51913;SDS011;37940;53.002;6.930;2023-03-01T14:55:16;16.65;;;12.07;;
51913;SDS011;37940;53.002;6.930;2023-03-01T14:57:48;16.75;;;10.98;;
51913;SDS011;37940;53.002;6.930;2023-03-01T15:00:19;17.02;;;12.07;;
51913;SDS011;37940;53.002;6.930;2023-03-01T15:02:48;17.38;;;11.70;;
51913;SDS011;37940;53.002;6.930;2023-03-01T15:05:15;16.90;;;11.68;;
51913;SDS011;37940;53.002;6.930;2023-03-01T15:08:03;17.30;;;11.38;;
51913;SDS011;37940;53.002;6.930;2023-03-01T15:10:34;16.52;;;11.68;;
51913;SDS011;37940;53.002;6.930;2023-03-01T15:18:05;18.27;;;12.35;;
51913;SDS011;37940;53.002;6.930;2023-03-01T15:20:47;16.43;;;12.40;;
51913;SDS011;37940;53.002;6.930;2023-03-01T15:23:21;16.70;;;12.00;;
51913;SDS011;37940;53.002;6.930;2023-03-01T15:25:51;18.67;;;12.82;;
51913;SDS011;37940;53.002;6.930;2023-03-01T15:28:35;17.42;;;12.45;;
51913;SDS011;37940;53.002;6.930;2023-03-01T15:31:16;18.48;;;12.60;;
51913;SDS011;37940;53.002;6.930;2023-03-01T15:33:45;19.30;;;12.45;;
51913;SDS011;37940;53.002;6.930;2023-03-01T15:36:36;18.20;;;12.95;;
51913;SDS011;37940;53.002;6.930;2023-03-01T15:39:32;19.58;;;12.75;;
51913;SDS011;37940;53.002;6.930;2023-03-01T15:45:37;18.45;;;13.35;;
51913;SDS011;37940;53.002;6.930;2023-03-01T15:47:40;17.42;;;12.60;;
51913;SDS011;37940;53.002;6.930;2023-03-01T15:50:23;18.08;;;13.43;;
51913;SDS011;37940;53.002;6.930;2023-03-01T15:52:52;17.60;;;13.40;;
51913;SDS011;37940;53.002;6.930;2023-03-01T15:55:20;18.88;;;13.35;;
51913;SDS011;37940;53.002;6.930;2023-03-01T15:58:02;17.95;;;12.95;;
51913;SDS011;37940;53.002;6.930;2023-03-01T16:00:35;19.20;;;14.13;;
51913;SDS011;37940;53.002;6.930;2023-03-01T16:03:01;18.55;;;13.50;;
51913;SDS011;37940;53.002;6.930;2023-03-01T16:05:28;18.95;;;13.57;;
51913;SDS011;37940;53.002;6.930;2023-03-01T16:07:56;18.40;;;13.85;;
51913;SDS011;37940;53.002;6.930;2023-03-01T16:10:22;18.77;;;13.40;;
51913;SDS011;37940;53.002;6.930;2023-03-01T16:12:49;17.63;;;13.13;;
51913;SDS011;37940;53.002;6.930;2023-03-01T16:17:47;20.73;;;14.98;;
51913;SDS011;37940;53.002;6.930;2023-03-01T16:20:13;21.88;;;15.43;;
51913;SDS011;37940;53.002;6.930;2023-03-01T16:22:43;21.17;;;15.00;;
51913;SDS011;37940;53.002;6.930;2023-03-01T16:25:11;22.73;;;16.15;;
51913;SDS011;37940;53.002;6.930;2023-03-01T16:27:38;22.08;;;16.05;;
51913;SDS011;37940;53.002;6.930;2023-03-01T16:30:07;20.55;;;15.65;;
51913;SDS011;37940;53.002;6.930;2023-03-01T16:32:41;25.65;;;15.95;;
51913;SDS011;37940;53.002;6.930;2023-03-01T16:35:08;22.02;;;15.48;;
51913;SDS011;37940;53.002;6.930;2023-03-01T16:37:36;24.48;;;16.42;;
51913;SDS011;37940;53.002;6.930;2023-03-01T16:40:02;23.20;;;15.90;;
51913;SDS011;37940;53.002;6.930;2023-03-01T16:42:36;23.45;;;16.25;;
51913;SDS011;37940;53.002;6.930;2023-03-01T16:45:02;21.73;;;15.82;;
51913;SDS011;37940;53.002;6.930;2023-03-01T16:47:29;23.83;;;16.20;;
51913;SDS011;37940;53.002;6.930;2023-03-01T16:49:54;23.40;;;15.40;;
51913;SDS011;37940;53.002;6.930;2023-03-01T16:52:21;24.55;;;16.58;;
51913;SDS011;37940;53.002;6.930;2023-03-01T16:54:47;23.27;;;16.50;;
51913;SDS011;37940;53.002;6.930;2023-03-01T16:57:13;22.67;;;15.65;;
51913;SDS011;37940;53.002;6.930;2023-03-01T16:59:39;25.27;;;16.73;;
51913;SDS011;37940;53.002;6.930;2023-03-01T17:02:06;24.77;;;16.80;;